Time;durP1;ratioP1;P1;durP2;ratioP2;P2;SDS_P1;SDS_P2;PMS_P1;PMS_P2;Temp;Humidity;BMP_temperature;BMP_pressure;BME280_temperature;BME280_humidity;BME280_pressure;Samples;Min_cycle;Max_cycle;Signal;HPM_P1;HPM_P2
2022/12/16 00:01:06;;;;;;;80.90;58.40;;;;;;;6.14;75.78;94759.56;5041506;28;20177;-67
2022/12/16 00:03:32;;;;;;;84.50;59.63;;;;;;;6.10;76.12;94755.59;5031309;28;20227;-67
2022/12/16 00:05:57;;;;;;;122.77;61.83;;;;;;;6.01;76.35;94748.53;5025540;28;20226;-67
2022/12/16 00:08:23;;;;;;;80.97;57.73;;;;;;;6.05;76.44;94772.59;5035358;28;20223;-67
2022/12/16 00:10:54;;;;;;;140.10;57.57;;;;;;;6.06;76.31;94756.78;5017131;28;20238;-67
2022/12/16 00:13:19;;;;;;;87.80;54.33;;;;;;;6.01;76.17;94760.75;5026533;28;20202;-67
2022/12/16 00:15:48;;;;;;;111.83;62.67;;;;;;;5.71;77.38;94747.53;5023145;28;20223;-67
2022/12/16 00:18:13;;;;;;;91.07;59.83;;;;;;;5.94;77.11;94756.06;5019980;28;20329;-67
2022/12/16 00:20:46;;;;;;;137.20;62.40;;;;;;;5.86;76.96;94752.44;5025610;28;20294;-67
2022/12/16 00:23:12;;;;;;;89.53;56.27;;;;;;;6.04;76.79;94750.91;5024416;28;20226;-67
2022/12/16 00:25:41;;;;;;;171.13;65.00;;;;;;;5.67;76.90;94751.34;5022894;28;20191;-67
2022/12/16 00:28:06;;;;;;;96.90;59.87;;;;;;;5.83;77.38;94750.91;5023675;28;20206;-67
2022/12/16 00:30:32;;;;;;;105.97;60.10;;;;;;;5.91;77.23;94735.41;5026704;28;20324;-67
2022/12/16 00:32:57;;;;;;;97.97;55.70;;;;;;;5.96;76.46;94746.31;5024369;28;20218;-67
2022/12/16 00:35:23;;;;;;;134.83;57.33;;;;;;;5.94;76.75;94726.53;5023229;28;20238;-67
2022/12/16 00:37:48;;;;;;;80.20;55.90;;;;;;;5.97;76.78;94765.41;5023063;28;20225;-67
2022/12/16 00:40:13;;;;;;;90.17;56.60;;;;;;;5.88;77.43;94760.94;5021681;28;20218;-67
2022/12/16 00:42:39;;;;;;;107.30;57.83;;;;;;;6.02;76.97;94757.22;5009319;28;20291;-67
2022/12/16 00:45:05;;;;;;;112.23;57.83;;;;;;;5.72;77.40;94736.16;5025721;28;20226;-67
2022/12/16 00:47:30;;;;;;;85.93;53.03;;;;;;;5.90;77.38;94743.38;5041869;28;20249;-67
2022/12/16 00:49:56;;;;;;;98.83;55.33;;;;;;;5.94;77.21;94755.25;5042603;28;20217;-66
2022/12/16 00:52:21;;;;;;;86.00;55.47;;;;;;;6.01;76.91;94719.81;5038388;28;20189;-67
2022/12/16 00:54:46;;;;;;;80.83;54.33;;;;;;;6.04;76.35;94756.13;5045713;28;20228;-67
2022/12/16 00:57:12;;;;;;;90.77;54.90;;;;;;;5.86;77.15;94723.72;5040185;28;20217;-67
2022/12/16 00:59:37;;;;;;;141.03;58.03;;;;;;;5.88;77.28;94751.34;5041186;28;20232;-67
2022/12/16 01:02:03;;;;;;;102.43;57.87;;;;;;;5.63;78.49;94725.66;5043300;28;20225;-67
2022/12/16 01:04:28;;;;;;;120.53;59.27;;;;;;;5.75;77.91;94738.50;5045947;28;20272;-67
2022/12/16 01:06:54;;;;;;;80.47;54.53;;;;;;;5.79;77.34;94739.06;5042686;28;20182;-67
2022/12/16 01:09:20;;;;;;;86.13;56.60;;;;;;;5.90;77.10;94730.31;5023238;28;20230;-67
2022/12/16 01:11:46;;;;;;;76.67;57.07;;;;;;;5.95;77.08;94734.22;5028203;28;20224;-67
2022/12/16 01:14:11;;;;;;;81.67;57.23;;;;;;;5.97;76.76;94747.16;5025002;28;20218;-67
2022/12/16 01:16:37;;;;;;;86.93;57.83;;;;;;;5.93;77.60;94727.44;5023833;28;20189;-67
2022/12/16 01:19:02;;;;;;;99.60;67.67;;;;;;;5.94;77.08;94750.03;5023645;28;20230;-67
2022/12/16 01:21:28;;;;;;;121.67;71.13;;;;;;;5.80;77.74;94743.34;5024421;28;20234;-67
2022/12/16 01:23:53;;;;;;;124.83;61.97;;;;;;;5.75;77.67;94751.53;5032071;28;20233;-67
2022/12/16 01:26:18;;;;;;;91.97;56.93;;;;;;;5.83;76.82;94740.47;5037707;28;20221;-67
2022/12/16 01:28:47;;;;;;;87.27;62.30;;;;;;;5.90;76.49;94719.88;5024998;28;20257;-67
2022/12/16 01:31:15;;;;;;;84.23;59.27;;;;;;;5.99;76.32;94732.19;5037979;28;20187;-67
2022/12/16 01:33:41;;;;;;;87.63;61.37;;;;;;;5.97;76.44;94723.66;5040884;28;20214;-67
2022/12/16 01:36:07;;;;;;;135.93;64.83;;;;;;;5.97;76.47;94732.31;5030182;28;20226;-67
2022/12/16 01:38:34;;;;;;;90.73;64.83;;;;;;;5.65;77.16;94721.13;5020060;28;20242;-67
2022/12/16 01:41:00;;;;;;;100.57;72.57;;;;;;;5.75;77.01;94714.19;5026747;28;20572;-67
2022/12/16 01:43:34;;;;;;;119.17;81.73;;;;;;;5.73;76.79;94737.78;5025588;28;20190;-67
2022/12/16 01:46:17;;;;;;;112.87;80.70;;;;;;;5.62;77.30;94724.81;5025961;28;20169;-67
2022/12/16 01:49:02;;;;;;;128.60;84.63;;;;;;;5.72;76.32;94714.44;5023783;28;20218;-67
2022/12/16 01:51:35;;;;;;;141.07;85.47;;;;;;;5.77;76.72;94709.66;5023123;28;20230;-67
2022/12/16 01:54:16;;;;;;;131.60;85.73;;;;;;;5.79;76.53;94718.19;5037703;28;20230;-67
2022/12/16 01:56:48;;;;;;;182.60;91.87;;;;;;;5.03;78.59;94702.75;5018320;28;20218;-67
2022/12/16 01:59:15;;;;;;;120.03;81.60;;;;;;;5.33;78.81;94721.22;5029083;28;20224;-68
2022/12/16 02:01:41;;;;;;;125.57;72.63;;;;;;;5.27;79.43;94702.53;5007740;28;20285;-68
2022/12/16 02:04:06;;;;;;;116.53;75.80;;;;;;;5.47;78.37;94726.94;5019357;28;20266;-67
2022/12/16 02:06:32;;;;;;;113.00;74.17;;;;;;;5.63;77.84;94712.59;5021481;28;20222;-68
2022/12/16 02:09:04;;;;;;;119.13;78.37;;;;;;;5.57;78.19;94703.53;5024324;28;20218;-68
2022/12/16 02:11:33;;;;;;;136.73;84.67;;;;;;;5.64;77.56;94680.34;5019901;28;20224;-68
2022/12/16 02:14:22;;;;;;;136.30;85.53;;;;;;;5.77;76.98;94687.97;5025282;28;20284;-68
2022/12/16 02:16:48;;;;;;;125.90;86.17;;;;;;;5.48;78.20;94676.44;5023140;28;20225;-68
2022/12/16 02:19:38;;;;;;;138.97;86.63;;;;;;;5.60;77.94;94669.34;5020894;28;20327;-68
2022/12/16 02:22:32;;;;;;;170.17;90.07;;;;;;;5.61;77.90;94665.78;5040168;28;20252;-67
2022/12/16 02:25:18;;;;;;;135.03;87.90;;;;;;;5.64;77.23;94699.44;5027821;28;20225;-68
2022/12/16 02:27:47;;;;;;;129.83;82.20;;;;;;;5.56;77.91;94664.50;5042483;28;20260;-67
2022/12/16 02:30:33;;;;;;;165.97;87.00;;;;;;;5.67;77.66;94700.97;5032583;28;20252;-67
2022/12/16 02:33:27;;;;;;;157.07;82.87;;;;;;;5.60;77.91;94700.66;5034017;28;20280;-67
2022/12/16 02:36:13;;;;;;;141.77;78.10;;;;;;;5.64;77.66;94665.53;5042486;28;20238;-67
2022/12/16 02:38:44;;;;;;;128.23;77.97;;;;;;;5.69;77.72;94672.94;5040753;28;20220;-67
2022/12/16 02:41:36;;;;;;;162.17;70.20;;;;;;;5.17;79.88;94678.16;5035709;28;20304;-66
2022/12/16 02:44:05;;;;;;;131.37;74.67;;;;;;;5.40;79.19;94688.44;5041056;28;20225;-67
2022/12/16 02:46:37;;;;;;;141.60;86.77;;;;;;;5.25;79.46;94686.19;5035549;28;20197;-67
2022/12/16 02:49:28;;;;;;;146.30;93.50;;;;;;;5.53;78.90;94691.69;5041371;28;20185;-67
2022/12/16 02:51:56;;;;;;;150.03;91.73;;;;;;;5.47;78.33;94710.47;5044076;28;20265;-67
2022/12/16 02:54:22;;;;;;;154.53;97.13;;;;;;;5.42;78.46;94702.19;5040053;28;20269;-67
2022/12/16 02:57:08;;;;;;;155.97;97.60;;;;;;;5.21;78.77;94721.28;5033052;28;20269;-67
2022/12/16 03:00:01;;;;;;;166.10;101.37;;;;;;;5.34;79.46;94747.16;5021566;28;20233;-67
2022/12/16 03:02:40;;;;;;;140.70;91.47;;;;;;;5.44;79.12;94726.38;5023741;28;20537;-67
2022/12/16 03:05:14;;;;;;;145.77;89.73;;;;;;;5.44;79.08;94705.50;5028437;28;20221;-67
2022/12/16 03:07:42;;;;;;;125.90;85.03;;;;;;;5.55;78.31;94730.69;5027096;28;20307;-67
2022/12/16 03:10:14;;;;;;;123.93;81.63;;;;;;;5.67;77.98;94711.41;5023366;28;20232;-67
2022/12/16 03:12:42;;;;;;;137.47;82.37;;;;;;;5.72;77.56;94710.06;5041004;28;20232;-67
2022/12/16 03:15:10;;;;;;;112.87;79.53;;;;;;;5.80;77.61;94705.97;5042108;28;20267;-67
2022/12/16 03:17:37;;;;;;;115.00;79.33;;;;;;;5.81;77.30;94699.81;5042003;28;20226;-67
2022/12/16 03:20:13;;;;;;;111.17;76.90;;;;;;;5.85;76.80;94688.13;5028134;28;20253;-67
2022/12/16 03:22:43;;;;;;;107.57;75.13;;;;;;;5.81;77.13;94681.53;5044417;28;20178;-67
2022/12/16 03:25:10;;;;;;;111.10;76.67;;;;;;;5.86;77.25;94679.38;5051276;28;20188;-66
2022/12/16 03:28:02;;;;;;;108.37;75.33;;;;;;;5.87;76.86;94692.25;5026341;28;20226;-67
2022/12/16 03:30:35;;;;;;;129.87;88.67;;;;;;;5.80;76.85;94675.50;5020580;28;20229;-67
2022/12/16 03:33:15;;;;;;;125.53;82.07;;;;;;;5.79;77.31;94678.22;5021404;28;20233;-67
2022/12/16 03:35:50;;;;;;;131.67;89.77;;;;;;;5.86;77.35;94679.38;5025443;28;20296;-67
2022/12/16 03:38:17;;;;;;;140.77;94.97;;;;;;;5.77;77.08;94678.34;5026133;28;20217;-67
2022/12/16 03:40:43;;;;;;;144.53;94.47;;;;;;;5.79;77.17;94691.28;5021893;28;20716;-67
2022/12/16 03:43:14;;;;;;;154.43;101.10;;;;;;;5.61;77.58;94676.22;5026340;28;20194;-67
2022/12/16 03:45:42;;;;;;;155.80;102.20;;;;;;;5.64;77.71;94709.88;5027515;28;20321;-67
2022/12/16 03:48:09;;;;;;;166.23;104.83;;;;;;;5.64;77.65;94702.06;5025398;28;20303;-67
2022/12/16 03:50:37;;;;;;;184.97;106.97;;;;;;;5.58;77.56;94712.16;5018014;28;20234;-68
2022/12/16 03:53:03;;;;;;;183.57;111.07;;;;;;;5.64;77.55;94711.63;5024443;28;20280;-68
2022/12/16 03:55:28;;;;;;;181.10;104.00;;;;;;;5.56;77.32;94727.09;5022695;28;20207;-68
2022/12/16 03:57:54;;;;;;;151.67;91.77;;;;;;;5.63;77.08;94704.78;5017799;28;20197;-68
2022/12/16 04:00:20;;;;;;;142.43;88.90;;;;;;;5.50;77.42;94742.31;5024852;28;20222;-67
2022/12/16 04:02:46;;;;;;;118.87;83.47;;;;;;;5.53;77.38;94723.81;5026518;28;20309;-68
2022/12/16 04:05:12;;;;;;;112.90;77.47;;;;;;;5.61;76.64;94743.19;5022073;28;20276;-68
2022/12/16 04:07:37;;;;;;;111.60;78.43;;;;;;;5.61;76.46;94727.56;5020376;28;20205;-68
2022/12/16 04:10:04;;;;;;;119.73;79.63;;;;;;;5.36;76.91;94723.56;5024979;28;20241;-68
2022/12/16 04:26:15;;;;;;;112.70;75.87;;;;;;;5.36;77.84;94719.16;5040436;28;20229;-67
2022/12/16 04:28:41;;;;;;;105.57;74.27;;;;;;;5.56;77.37;94714.91;5042607;28;20178;-68
2022/12/16 04:31:07;;;;;;;111.00;73.50;;;;;;;5.63;77.08;94695.16;5050602;28;20216;-68
